sensor_id;sensor_type;location;lat;lon;timestamp;P1;durP1;ratioP1;P2;durP2;ratioP2
70927;SDS011;58587;53.034;18.576;2023-02-03T00:01:16;8.47;;;3.63;;
70927;SDS011;58587;53.034;18.576;2023-02-03T00:03:42;9.87;;;3.87;;
70927;SDS011;58587;53.034;18.576;2023-02-03T00:06:07;8.70;;;3.93;;
70927;SDS011;58587;53.034;18.576;2023-02-03T10:31:25;25.50;;;10.63;;
70927;SDS011;58587;53.034;18.576;2023-02-03T10:36:41;25.27;;;9.75;;
70927;SDS011;58587;53.034;18.576;2023-02-03T10:41:34;21.60;;;9.17;;
70927;SDS011;58587;53.034;18.576;2023-02-03T10:44:00;31.47;;;13.37;;
70927;SDS011;58587;53.034;18.576;2023-02-03T10:46:31;20.08;;;9.02;;
70927;SDS011;58587;53.034;18.576;2023-02-03T10:48:59;20.00;;;8.90;;
70927;SDS011;58587;53.034;18.576;2023-02-03T10:52:07;20.77;;;9.02;;
70927;SDS011;58587;53.034;18.576;2023-02-03T10:54:27;19.35;;;8.98;;
70927;SDS011;58587;53.034;18.576;2023-02-03T10:56:53;347.43;;;125.77;;
70927;SDS011;58587;53.034;18.576;2023-02-03T10:59:28;90.93;;;40.90;;
70927;SDS011;58587;53.034;18.576;2023-02-03T11:01:56;93.97;;;40.08;;
70927;SDS011;58587;53.034;18.576;2023-02-03T11:04:28;42.27;;;19.67;;
70927;SDS011;58587;53.034;18.576;2023-02-03T11:06:57;55.10;;;30.55;;
70927;SDS011;58587;53.034;18.576;2023-02-03T11:12:12;46.67;;;24.38;;
70927;SDS011;58587;53.034;18.576;2023-02-03T11:14:43;82.20;;;48.77;;
70927;SDS011;58587;53.034;18.576;2023-02-03T11:17:14;52.95;;;29.98;;
70927;SDS011;58587;53.034;18.576;2023-02-03T11:19:45;41.65;;;19.00;;
70927;SDS011;58587;53.034;18.576;2023-02-03T11:22:13;111.28;;;62.83;;
70927;SDS011;58587;53.034;18.576;2023-02-03T11:24:54;72.70;;;43.53;;
70927;SDS011;58587;53.034;18.576;2023-02-03T11:27:19;157.10;;;89.80;;
70927;SDS011;58587;53.034;18.576;2023-02-03T11:29:47;238.77;;;114.75;;
70927;SDS011;58587;53.034;18.576;2023-02-03T11:32:22;724.92;;;404.67;;
70927;SDS011;58587;53.034;18.576;2023-02-03T11:35:01;283.58;;;138.80;;
70927;SDS011;58587;53.034;18.576;2023-02-03T11:37:48;295.67;;;153.47;;
70927;SDS011;58587;53.034;18.576;2023-02-03T11:42:44;56.53;;;32.92;;
70927;SDS011;58587;53.034;18.576;2023-02-03T11:47:55;97.63;;;31.02;;
70927;SDS011;58587;53.034;18.576;2023-02-03T11:56:19;72.18;;;22.25;;
70927;SDS011;58587;53.034;18.576;2023-02-03T12:01:42;304.40;;;89.53;;
70927;SDS011;58587;53.034;18.576;2023-02-03T12:04:31;132.10;;;38.63;;
70927;SDS011;58587;53.034;18.576;2023-02-03T12:12:28;51.45;;;19.92;;
70927;SDS011;58587;53.034;18.576;2023-02-03T12:17:57;74.43;;;24.77;;
70927;SDS011;58587;53.034;18.576;2023-02-03T12:31:52;52.80;;;19.87;;
70927;SDS011;58587;53.034;18.576;2023-02-03T12:34:28;51.08;;;16.10;;
70927;SDS011;58587;53.034;18.576;2023-02-03T12:39:30;43.25;;;15.38;;
70927;SDS011;58587;53.034;18.576;2023-02-03T12:45:14;51.03;;;19.53;;
70927;SDS011;58587;53.034;18.576;2023-02-03T12:47:44;38.58;;;15.88;;
70927;SDS011;58587;53.034;18.576;2023-02-03T12:50:16;35.80;;;14.57;;
70927;SDS011;58587;53.034;18.576;2023-02-03T12:57:49;29.03;;;14.50;;
70927;SDS011;58587;53.034;18.576;2023-02-03T13:03:09;20.48;;;11.13;;
70927;SDS011;58587;53.034;18.576;2023-02-03T13:11:31;111.87;;;38.73;;
70927;SDS011;58587;53.034;18.576;2023-02-03T13:14:03;339.75;;;97.45;;
70927;SDS011;58587;53.034;18.576;2023-02-03T13:16:38;206.40;;;53.83;;
70927;SDS011;58587;53.034;18.576;2023-02-03T13:19:10;195.30;;;50.42;;
70927;SDS011;58587;53.034;18.576;2023-02-03T13:21:41;150.05;;;42.85;;
70927;SDS011;58587;53.034;18.576;2023-02-03T13:24:06;100.10;;;28.57;;
70927;SDS011;58587;53.034;18.576;2023-02-03T13:29:31;65.47;;;20.83;;
70927;SDS011;58587;53.034;18.576;2023-02-03T13:34:40;149.93;;;39.80;;
70927;SDS011;58587;53.034;18.576;2023-02-03T13:43:02;137.07;;;42.20;;
70927;SDS011;58587;53.034;18.576;2023-02-03T13:45:31;255.68;;;73.43;;
70927;SDS011;58587;53.034;18.576;2023-02-03T13:48:07;321.27;;;97.88;;
70927;SDS011;58587;53.034;18.576;2023-02-03T13:53:35;142.35;;;46.13;;
70927;SDS011;58587;53.034;18.576;2023-02-03T13:56:03;98.97;;;31.87;;
70927;SDS011;58587;53.034;18.576;2023-02-03T13:58:34;64.60;;;24.15;;
70927;SDS011;58587;53.034;18.576;2023-02-03T14:01:45;122.50;;;39.28;;
70927;SDS011;58587;53.034;18.576;2023-02-03T14:04:01;61.00;;;24.52;;
70927;SDS011;58587;53.034;18.576;2023-02-03T14:09:16;93.90;;;34.37;;
70927;SDS011;58587;53.034;18.576;2023-02-03T14:11:45;36.20;;;13.98;;
70927;SDS011;58587;53.034;18.576;2023-02-03T14:16:47;134.25;;;41.22;;
70927;SDS011;58587;53.034;18.576;2023-02-03T14:22:00;75.90;;;26.73;;
70927;SDS011;58587;53.034;18.576;2023-02-03T14:24:29;182.57;;;93.75;;
70927;SDS011;58587;53.034;18.576;2023-02-03T14:26:55;114.68;;;61.00;;
70927;SDS011;58587;53.034;18.576;2023-02-03T14:31:59;50.00;;;20.83;;
70927;SDS011;58587;53.034;18.576;2023-02-03T14:34:30;49.77;;;22.33;;
70927;SDS011;58587;53.034;18.576;2023-02-03T14:37:09;46.67;;;21.00;;
70927;SDS011;58587;53.034;18.576;2023-02-03T14:39:44;45.78;;;20.63;;
70927;SDS011;58587;53.034;18.576;2023-02-03T14:57:26;60.97;;;25.92;;
70927;SDS011;58587;53.034;18.576;2023-02-03T15:02:32;53.47;;;28.03;;
70927;SDS011;58587;53.034;18.576;2023-02-03T15:07:45;74.65;;;34.08;;
70927;SDS011;58587;53.034;18.576;2023-02-03T15:10:20;89.05;;;40.35;;
70927;SDS011;58587;53.034;18.576;2023-02-03T15:12:48;134.05;;;52.30;;
70927;SDS011;58587;53.034;18.576;2023-02-03T15:17:50;159.38;;;56.80;;
70927;SDS011;58587;53.034;18.576;2023-02-03T15:23:21;152.52;;;56.60;;
70927;SDS011;58587;53.034;18.576;2023-02-03T15:25:58;150.02;;;56.95;;
70927;SDS011;58587;53.034;18.576;2023-02-03T15:28:26;144.43;;;55.47;;
70927;SDS011;58587;53.034;18.576;2023-02-03T15:33:42;154.13;;;59.22;;
70927;SDS011;58587;53.034;18.576;2023-02-03T15:36:18;162.25;;;62.40;;
70927;SDS011;58587;53.034;18.576;2023-02-03T15:38:58;151.65;;;60.25;;
70927;SDS011;58587;53.034;18.576;2023-02-03T15:41:31;152.80;;;58.30;;
70927;SDS011;58587;53.034;18.576;2023-02-03T15:43:59;160.10;;;58.60;;
70927;SDS011;58587;53.034;18.576;2023-02-03T15:46:34;143.75;;;55.80;;
70927;SDS011;58587;53.034;18.576;2023-02-03T15:49:11;154.13;;;58.30;;
70927;SDS011;58587;53.034;18.576;2023-02-03T15:51:56;145.50;;;55.30;;
70927;SDS011;58587;53.034;18.576;2023-02-03T15:54:30;149.32;;;54.65;;
70927;SDS011;58587;53.034;18.576;2023-02-03T15:57:21;148.82;;;53.95;;
70927;SDS011;58587;53.034;18.576;2023-02-03T15:59:53;148.60;;;51.55;;
70927;SDS011;58587;53.034;18.576;2023-02-03T16:02:23;129.68;;;46.05;;
70927;SDS011;58587;53.034;18.576;2023-02-03T16:04:52;121.93;;;46.17;;
70927;SDS011;58587;53.034;18.576;2023-02-03T16:07:28;121.15;;;42.65;;
70927;SDS011;58587;53.034;18.576;2023-02-03T16:09:57;112.15;;;41.60;;
70927;SDS011;58587;53.034;18.576;2023-02-03T16:12:24;113.47;;;40.77;;
70927;SDS011;58587;53.034;18.576;2023-02-03T16:14:59;109.15;;;40.95;;
70927;SDS011;58587;53.034;18.576;2023-02-03T16:17:29;125.10;;;46.13;;
70927;SDS011;58587;53.034;18.576;2023-02-03T16:22:37;102.22;;;39.13;;
70927;SDS011;58587;53.034;18.576;2023-02-03T16:25:25;94.73;;;37.17;;
70927;SDS011;58587;53.034;18.576;2023-02-03T16:27:55;85.32;;;35.72;;
70927;SDS011;58587;53.034;18.576;2023-02-03T16:33:59;76.68;;;31.55;;
70927;SDS011;58587;53.034;18.576;2023-02-03T16:36:44;69.22;;;27.33;;
70927;SDS011;58587;53.034;18.576;2023-02-03T16:39:28;66.47;;;27.80;;
70927;SDS011;58587;53.034;18.576;2023-02-03T16:42:19;62.72;;;24.92;;
70927;SDS011;58587;53.034;18.576;2023-02-03T16:45:14;58.45;;;24.83;;
70927;SDS011;58587;53.034;18.576;2023-02-03T16:48:00;55.42;;;23.33;;
70927;SDS011;58587;53.034;18.576;2023-02-03T16:50:45;69.28;;;27.92;;
70927;SDS011;58587;53.034;18.576;2023-02-03T16:53:18;62.80;;;28.63;;
70927;SDS011;58587;53.034;18.576;2023-02-03T16:55:49;72.50;;;35.22;;
70927;SDS011;58587;53.034;18.576;2023-02-03T16:58:15;94.72;;;36.67;;
70927;SDS011;58587;53.034;18.576;2023-02-03T17:00:44;102.20;;;38.50;;
70927;SDS011;58587;53.034;18.576;2023-02-03T17:03:12;115.38;;;44.33;;
70927;SDS011;58587;53.034;18.576;2023-02-03T17:05:39;147.30;;;69.45;;
70927;SDS011;58587;53.034;18.576;2023-02-03T17:08:06;155.00;;;64.20;;
70927;SDS011;58587;53.034;18.576;2023-02-03T17:10:32;101.25;;;45.13;;
70927;SDS011;58587;53.034;18.576;2023-02-03T17:12:59;72.50;;;28.27;;
70927;SDS011;58587;53.034;18.576;2023-02-03T17:15:24;66.13;;;27.77;;
70927;SDS011;58587;53.034;18.576;2023-02-03T17:17:49;131.68;;;39.05;;
70927;SDS011;58587;53.034;18.576;2023-02-03T17:20:15;415.40;;;122.53;;
70927;SDS011;58587;53.034;18.576;2023-02-03T17:22:40;308.73;;;96.60;;
70927;SDS011;58587;53.034;18.576;2023-02-03T17:25:06;265.23;;;80.70;;
70927;SDS011;58587;53.034;18.576;2023-02-03T17:27:31;211.30;;;58.60;;
70927;SDS011;58587;53.034;18.576;2023-02-03T17:30:00;238.07;;;56.03;;
70927;SDS011;58587;53.034;18.576;2023-02-03T17:32:25;346.90;;;77.90;;
70927;SDS011;58587;53.034;18.576;2023-02-03T17:34:51;272.53;;;65.83;;
70927;SDS011;58587;53.034;18.576;2023-02-03T17:37:16;241.00;;;59.67;;
70927;SDS011;58587;53.034;18.576;2023-02-03T17:39:41;152.50;;;43.03;;
70927;SDS011;58587;53.034;18.576;2023-02-03T17:42:07;90.80;;;30.47;;
70927;SDS011;58587;53.034;18.576;2023-02-03T17:44:33;52.80;;;20.33;;
70927;SDS011;58587;53.034;18.576;2023-02-03T17:46:59;49.92;;;21.50;;
70927;SDS011;58587;53.034;18.576;2023-02-03T17:49:24;45.73;;;19.93;;
70927;SDS011;58587;53.034;18.576;2023-02-03T17:51:50;58.33;;;24.80;;
70927;SDS011;58587;53.034;18.576;2023-02-03T17:54:15;53.40;;;24.37;;
70927;SDS011;58587;53.034;18.576;2023-02-03T17:56:41;52.97;;;26.50;;
70927;SDS011;58587;53.034;18.576;2023-02-03T17:59:06;49.70;;;24.27;;
70927;SDS011;58587;53.034;18.576;2023-02-03T18:01:33;44.60;;;22.95;;
70927;SDS011;58587;53.034;18.576;2023-02-03T18:03:59;53.23;;;22.83;;
70927;SDS011;58587;53.034;18.576;2023-02-03T18:06:27;53.40;;;24.27;;
70927;SDS011;58587;53.034;18.576;2023-02-03T18:08:53;69.55;;;29.38;;
70927;SDS011;58587;53.034;18.576;2023-02-03T18:11:25;201.83;;;60.70;;
70927;SDS011;58587;53.034;18.576;2023-02-03T18:13:50;74.07;;;30.33;;
70927;SDS011;58587;53.034;18.576;2023-02-03T18:16:17;107.47;;;42.87;;
70927;SDS011;58587;53.034;18.576;2023-02-03T18:18:46;80.82;;;37.60;;
70927;SDS011;58587;53.034;18.576;2023-02-03T18:21:13;69.55;;;34.65;;
70927;SDS011;58587;53.034;18.576;2023-02-03T18:23:40;76.90;;;36.60;;
70927;SDS011;58587;53.034;18.576;2023-02-03T18:26:07;96.72;;;42.85;;
70927;SDS011;58587;53.034;18.576;2023-02-03T18:28:34;112.32;;;46.95;;
70927;SDS011;58587;53.034;18.576;2023-02-03T18:31:04;144.05;;;57.70;;
70927;SDS011;58587;53.034;18.576;2023-02-03T18:33:29;146.40;;;59.88;;
70927;SDS011;58587;53.034;18.576;2023-02-03T18:35:55;144.05;;;57.00;;
70927;SDS011;58587;53.034;18.576;2023-02-03T18:38:22;127.15;;;64.00;;
70927;SDS011;58587;53.034;18.576;2023-02-03T18:40:50;97.30;;;47.40;;
70927;SDS011;58587;53.034;18.576;2023-02-03T18:43:16;94.82;;;43.45;;
70927;SDS011;58587;53.034;18.576;2023-02-03T18:45:41;68.05;;;34.78;;
70927;SDS011;58587;53.034;18.576;2023-02-03T18:48:06;60.80;;;32.80;;
70927;SDS011;58587;53.034;18.576;2023-02-03T18:50:32;66.47;;;34.27;;
70927;SDS011;58587;53.034;18.576;2023-02-03T18:52:57;60.77;;;32.97;;
70927;SDS011;58587;53.034;18.576;2023-02-03T18:55:23;65.40;;;33.87;;
70927;SDS011;58587;53.034;18.576;2023-02-03T18:57:48;63.15;;;30.65;;
70927;SDS011;58587;53.034;18.576;2023-02-03T19:00:14;56.93;;;29.93;;
70927;SDS011;58587;53.034;18.576;2023-02-03T19:02:40;70.13;;;36.23;;
70927;SDS011;58587;53.034;18.576;2023-02-03T19:05:05;70.80;;;35.03;;
70927;SDS011;58587;53.034;18.576;2023-02-03T19:07:32;73.17;;;36.93;;
70927;SDS011;58587;53.034;18.576;2023-02-03T19:09:57;91.15;;;42.95;;
70927;SDS011;58587;53.034;18.576;2023-02-03T19:12:23;299.80;;;120.50;;
70927;SDS011;58587;53.034;18.576;2023-02-03T19:14:50;257.88;;;104.45;;
70927;SDS011;58587;53.034;18.576;2023-02-03T19:17:15;296.03;;;113.67;;
70927;SDS011;58587;53.034;18.576;2023-02-03T19:19:41;278.20;;;99.30;;
70927;SDS011;58587;53.034;18.576;2023-02-03T19:22:06;293.50;;;97.60;;
70927;SDS011;58587;53.034;18.576;2023-02-03T19:24:31;266.30;;;91.17;;
70927;SDS011;58587;53.034;18.576;2023-02-03T19:26:57;334.10;;;94.93;;
70927;SDS011;58587;53.034;18.576;2023-02-03T19:29:22;596.77;;;181.37;;
70927;SDS011;58587;53.034;18.576;2023-02-03T19:31:47;672.95;;;212.77;;
70927;SDS011;58587;53.034;18.576;2023-02-03T19:34:16;308.83;;;100.80;;
70927;SDS011;58587;53.034;18.576;2023-02-03T19:36:41;371.60;;;120.07;;
70927;SDS011;58587;53.034;18.576;2023-02-03T19:39:07;159.25;;;58.92;;
70927;SDS011;58587;53.034;18.576;2023-02-03T19:41:33;177.60;;;73.67;;
70927;SDS011;58587;53.034;18.576;2023-02-03T19:44:00;99.28;;;47.47;;
70927;SDS011;58587;53.034;18.576;2023-02-03T19:46:27;126.75;;;50.75;;
70927;SDS011;58587;53.034;18.576;2023-02-03T19:48:55;90.82;;;43.50;;
70927;SDS011;58587;53.034;18.576;2023-02-03T19:51:21;95.43;;;34.77;;
70927;SDS011;58587;53.034;18.576;2023-02-03T19:53:48;98.95;;;35.58;;
70927;SDS011;58587;53.034;18.576;2023-02-03T19:56:13;88.73;;;29.93;;
70927;SDS011;58587;53.034;18.576;2023-02-03T19:58:38;58.93;;;24.63;;
70927;SDS011;58587;53.034;18.576;2023-02-03T20:01:04;60.83;;;25.53;;
70927;SDS011;58587;53.034;18.576;2023-02-03T20:03:29;78.33;;;29.07;;
70927;SDS011;58587;53.034;18.576;2023-02-03T20:05:56;64.97;;;26.80;;
70927;SDS011;58587;53.034;18.576;2023-02-03T20:08:22;71.80;;;29.13;;
70927;SDS011;58587;53.034;18.576;2023-02-03T20:10:47;71.00;;;26.60;;
70927;SDS011;58587;53.034;18.576;2023-02-03T20:13:13;61.93;;;24.40;;
70927;SDS011;58587;53.034;18.576;2023-02-03T20:15:38;60.93;;;24.13;;
70927;SDS011;58587;53.034;18.576;2023-02-03T20:18:04;49.75;;;23.52;;
70927;SDS011;58587;53.034;18.576;2023-02-03T20:20:30;79.07;;;32.60;;
70927;SDS011;58587;53.034;18.576;2023-02-03T20:22:57;67.57;;;29.48;;
70927;SDS011;58587;53.034;18.576;2023-02-03T20:25:22;68.57;;;30.00;;
70927;SDS011;58587;53.034;18.576;2023-02-03T20:27:47;66.22;;;28.27;;
70927;SDS011;58587;53.034;18.576;2023-02-03T20:30:13;57.77;;;24.97;;
70927;SDS011;58587;53.034;18.576;2023-02-03T20:32:38;57.63;;;27.50;;
70927;SDS011;58587;53.034;18.576;2023-02-03T20:35:04;44.77;;;23.07;;
70927;SDS011;58587;53.034;18.576;2023-02-03T20:37:30;60.22;;;28.40;;
70927;SDS011;58587;53.034;18.576;2023-02-03T20:39:56;63.77;;;32.67;;
70927;SDS011;58587;53.034;18.576;2023-02-03T20:42:21;51.80;;;24.88;;
70927;SDS011;58587;53.034;18.576;2023-02-03T20:44:47;53.27;;;27.20;;
70927;SDS011;58587;53.034;18.576;2023-02-03T20:47:13;50.10;;;24.70;;
70927;SDS011;58587;53.034;18.576;2023-02-03T20:49:43;47.88;;;23.83;;
70927;SDS011;58587;53.034;18.576;2023-02-03T20:52:10;47.10;;;23.83;;
70927;SDS011;58587;53.034;18.576;2023-02-03T20:54:37;46.93;;;22.90;;
70927;SDS011;58587;53.034;18.576;2023-02-03T20:57:05;48.03;;;24.08;;
70927;SDS011;58587;53.034;18.576;2023-02-03T20:59:35;39.83;;;20.65;;
70927;SDS011;58587;53.034;18.576;2023-02-03T21:02:01;35.75;;;18.90;;
70927;SDS011;58587;53.034;18.576;2023-02-03T21:04:33;34.35;;;17.67;;
70927;SDS011;58587;53.034;18.576;2023-02-03T21:07:17;46.23;;;20.77;;
70927;SDS011;58587;53.034;18.576;2023-02-03T21:09:43;37.20;;;18.98;;
70927;SDS011;58587;53.034;18.576;2023-02-03T21:12:11;35.33;;;17.57;;
70927;SDS011;58587;53.034;18.576;2023-02-03T21:14:40;34.80;;;17.20;;
70927;SDS011;58587;53.034;18.576;2023-02-03T21:17:17;35.10;;;16.97;;
70927;SDS011;58587;53.034;18.576;2023-02-03T21:19:44;32.78;;;16.73;;
70927;SDS011;58587;53.034;18.576;2023-02-03T21:22:14;33.55;;;15.90;;
70927;SDS011;58587;53.034;18.576;2023-02-03T21:24:44;41.47;;;19.43;;
70927;SDS011;58587;53.034;18.576;2023-02-03T21:27:22;34.85;;;16.75;;
70927;SDS011;58587;53.034;18.576;2023-02-03T21:29:50;35.22;;;16.83;;
70927;SDS011;58587;53.034;18.576;2023-02-03T21:32:19;36.88;;;17.17;;
70927;SDS011;58587;53.034;18.576;2023-02-03T21:34:45;38.92;;;18.45;;
70927;SDS011;58587;53.034;18.576;2023-02-03T21:39:46;36.40;;;16.23;;
70927;SDS011;58587;53.034;18.576;2023-02-03T21:42:24;32.13;;;16.20;;
70927;SDS011;58587;53.034;18.576;2023-02-03T21:47:39;28.63;;;14.70;;
70927;SDS011;58587;53.034;18.576;2023-02-03T21:55:29;27.17;;;13.73;;
70927;SDS011;58587;53.034;18.576;2023-02-03T21:57:55;24.70;;;12.13;;
70927;SDS011;58587;53.034;18.576;2023-02-03T22:00:37;26.23;;;13.40;;
70927;SDS011;58587;53.034;18.576;2023-02-03T22:03:03;27.08;;;13.00;;
70927;SDS011;58587;53.034;18.576;2023-02-03T22:05:32;27.30;;;12.73;;
70927;SDS011;58587;53.034;18.576;2023-02-03T22:07:59;26.00;;;13.13;;
70927;SDS011;58587;53.034;18.576;2023-02-03T22:10:30;25.93;;;11.87;;
70927;SDS011;58587;53.034;18.576;2023-02-03T22:12:56;28.00;;;13.70;;
70927;SDS011;58587;53.034;18.576;2023-02-03T22:15:21;22.60;;;11.70;;
70927;SDS011;58587;53.034;18.576;2023-02-03T22:17:46;26.47;;;12.57;;
70927;SDS011;58587;53.034;18.576;2023-02-03T22:20:13;25.50;;;12.85;;
70927;SDS011;58587;53.034;18.576;2023-02-03T22:22:38;24.77;;;11.50;;
70927;SDS011;58587;53.034;18.576;2023-02-03T22:25:04;21.40;;;10.77;;
70927;SDS011;58587;53.034;18.576;2023-02-03T22:27:30;21.95;;;10.02;;
70927;SDS011;58587;53.034;18.576;2023-02-03T22:29:56;21.50;;;10.20;;
70927;SDS011;58587;53.034;18.576;2023-02-03T22:32:25;22.40;;;10.73;;
70927;SDS011;58587;53.034;18.576;2023-02-03T22:34:50;21.97;;;10.30;;
70927;SDS011;58587;53.034;18.576;2023-02-03T22:37:15;20.77;;;10.10;;
70927;SDS011;58587;53.034;18.576;2023-02-03T22:39:40;19.70;;;10.20;;
70927;SDS011;58587;53.034;18.576;2023-02-03T22:42:06;21.23;;;10.13;;
70927;SDS011;58587;53.034;18.576;2023-02-03T22:44:31;19.58;;;9.70;;
70927;SDS011;58587;53.034;18.576;2023-02-03T22:46:57;19.87;;;10.20;;
70927;SDS011;58587;53.034;18.576;2023-02-03T22:49:22;21.57;;;11.70;;
70927;SDS011;58587;53.034;18.576;2023-02-03T22:51:48;18.00;;;8.77;;
70927;SDS011;58587;53.034;18.576;2023-02-03T22:54:13;16.53;;;8.93;;
70927;SDS011;58587;53.034;18.576;2023-02-03T22:56:38;17.00;;;9.27;;
70927;SDS011;58587;53.034;18.576;2023-02-03T22:59:04;18.20;;;9.57;;
70927;SDS011;58587;53.034;18.576;2023-02-03T23:01:29;16.30;;;8.87;;
70927;SDS011;58587;53.034;18.576;2023-02-03T23:03:54;17.03;;;9.77;;
70927;SDS011;58587;53.034;18.576;2023-02-03T23:06:20;15.23;;;8.93;;
70927;SDS011;58587;53.034;18.576;2023-02-03T23:08:45;18.47;;;9.40;;
70927;SDS011;58587;53.034;18.576;2023-02-03T23:11:10;15.23;;;8.93;;
70927;SDS011;58587;53.034;18.576;2023-02-03T23:13:36;16.60;;;8.90;;
70927;SDS011;58587;53.034;18.576;2023-02-03T23:16:01;17.08;;;8.63;;
70927;SDS011;58587;53.034;18.576;2023-02-03T23:18:26;17.73;;;8.93;;
70927;SDS011;58587;53.034;18.576;2023-02-03T23:20:52;12.50;;;6.87;;
70927;SDS011;58587;53.034;18.576;2023-02-03T23:23:17;13.97;;;7.23;;
70927;SDS011;58587;53.034;18.576;2023-02-03T23:25:43;16.97;;;7.73;;
70927;SDS011;58587;53.034;18.576;2023-02-03T23:28:09;14.70;;;7.75;;
70927;SDS011;58587;53.034;18.576;2023-02-03T23:30:34;13.67;;;6.97;;
70927;SDS011;58587;53.034;18.576;2023-02-03T23:32:59;11.60;;;6.37;;
70927;SDS011;58587;53.034;18.576;2023-02-03T23:35:25;11.60;;;6.30;;
70927;SDS011;58587;53.034;18.576;2023-02-03T23:38:08;11.80;;;6.07;;
70927;SDS011;58587;53.034;18.576;2023-02-03T23:40:34;23.73;;;13.37;;
70927;SDS011;58587;53.034;18.576;2023-02-03T23:42:59;21.33;;;8.87;;
70927;SDS011;58587;53.034;18.576;2023-02-03T23:45:24;13.33;;;6.50;;
70927;SDS011;58587;53.034;18.576;2023-02-03T23:47:50;12.37;;;6.30;;
70927;SDS011;58587;53.034;18.576;2023-02-03T23:50:15;12.48;;;5.72;;
70927;SDS011;58587;53.034;18.576;2023-02-03T23:52:42;10.30;;;4.97;;
70927;SDS011;58587;53.034;18.576;2023-02-03T23:55:09;7.97;;;3.88;;
70927;SDS011;58587;53.034;18.576;2023-02-03T23:57:37;8.30;;;3.33;;
